createdAt,value
2022-11-10T00:01:11.971Z,12.40
2022-11-10T00:03:40.842Z,12.20
2022-11-10T00:06:10.479Z,12.30
2022-11-10T00:08:40.505Z,12.30
2022-11-10T00:11:09.311Z,12.20
2022-11-10T00:13:59.992Z,12.30
2022-11-10T00:16:45.327Z,12.20
2022-11-10T00:19:13.257Z,12.20
2022-11-10T00:21:41.706Z,12.10
2022-11-10T00:24:11.361Z,12.30
2022-11-10T00:26:39.512Z,12.30
2022-11-10T00:29:07.907Z,12.30
2022-11-10T00:31:38.218Z,12.30
2022-11-10T00:34:07.066Z,12.30
2022-11-10T00:36:36.281Z,12.30
2022-11-10T00:39:05.781Z,12.30
2022-11-10T00:41:36.344Z,12.30
2022-11-10T00:44:04.792Z,12.30
2022-11-10T00:46:33.227Z,12.30
2022-11-10T00:49:01.400Z,12.30
2022-11-10T00:51:30.976Z,12.30
2022-11-10T00:53:58.935Z,12.30
2022-11-10T00:56:27.285Z,12.40
2022-11-10T00:58:56.685Z,12.30
2022-11-10T01:01:29.510Z,12.40
2022-11-10T01:03:57.828Z,12.30
2022-11-10T01:06:28.797Z,12.50
2022-11-10T01:08:56.844Z,12.40
2022-11-10T01:11:27.550Z,12.40
2022-11-10T01:13:58.824Z,12.50
2022-11-10T01:16:29.606Z,12.50
2022-11-10T01:18:59.598Z,12.60
2022-11-10T01:21:28.640Z,12.40
2022-11-10T01:23:58.023Z,12.40
2022-11-10T01:26:26.117Z,12.30
2022-11-10T01:28:56.017Z,12.30
2022-11-10T01:31:25.340Z,12.30
2022-11-10T01:33:53.269Z,12.30
2022-11-10T01:41:43.307Z,12.30
2022-11-10T01:44:17.886Z,12.40
2022-11-10T01:46:47.776Z,12.30
2022-11-10T01:49:18.594Z,12.20
2022-11-10T01:51:52.460Z,12.20
2022-11-10T01:54:23.791Z,12.20
2022-11-10T01:56:54.710Z,12.20
2022-11-10T01:59:27.212Z,12.20
2022-11-10T02:02:01.731Z,12.20
2022-11-10T02:04:31.787Z,12.30
2022-11-10T02:07:00.679Z,12.10
2022-11-10T02:09:28.963Z,12.20
2022-11-10T02:11:58.114Z,12.10
2022-11-10T02:14:26.735Z,12.10
2022-11-10T02:16:56.255Z,12.10
2022-11-10T02:19:25.952Z,12.10
2022-11-10T02:21:55.556Z,12.10
2022-11-10T02:24:23.758Z,12.00
2022-11-10T02:26:55.604Z,12.10
2022-11-10T02:29:24.635Z,12.10
2022-11-10T02:31:53.231Z,12.10
2022-11-10T02:34:21.576Z,12.00
2022-11-10T02:36:49.599Z,12.10
2022-11-10T02:39:19.254Z,12.00
2022-11-10T02:41:47.402Z,12.00
2022-11-10T02:44:15.771Z,11.90
2022-11-10T02:46:44.136Z,12.00
2022-11-10T02:49:12.257Z,11.90
2022-11-10T02:51:40.592Z,11.90
2022-11-10T02:54:08.679Z,11.90
2022-11-10T02:56:40.923Z,11.90
2022-11-10T02:59:09.165Z,11.80
2022-11-10T03:01:37.248Z,11.90
2022-11-10T03:04:05.897Z,11.90
2022-11-10T03:06:34.563Z,11.80
2022-11-10T03:09:02.645Z,11.80
2022-11-10T03:11:32.344Z,11.80
2022-11-10T03:14:02.832Z,11.80
2022-11-10T03:16:31.493Z,11.80
2022-11-10T03:18:59.539Z,11.80
2022-11-10T03:21:27.760Z,11.80
2022-11-10T03:23:55.899Z,11.80
2022-11-10T03:26:24.182Z,11.80
2022-11-10T03:28:52.799Z,11.80
2022-11-10T03:31:22.567Z,11.80
2022-11-10T03:33:50.537Z,11.80
2022-11-10T03:36:21.199Z,11.70
2022-11-10T03:38:49.328Z,11.80
2022-11-10T03:41:20.516Z,11.80
2022-11-10T03:43:49.179Z,11.80
2022-11-10T03:46:17.796Z,11.80
2022-11-10T03:48:53.325Z,11.70
2022-11-10T03:51:22.656Z,11.80
2022-11-10T03:53:50.967Z,11.80
2022-11-10T03:56:19.103Z,11.70
2022-11-10T03:58:47.186Z,11.80
2022-11-10T04:01:15.403Z,11.80
2022-11-10T04:03:48.801Z,11.80
2022-11-10T04:06:38.144Z,11.70
2022-11-10T04:09:07.452Z,11.80
2022-11-10T04:11:53.237Z,11.80
2022-11-10T04:14:38.595Z,11.80
2022-11-10T04:17:06.732Z,11.80
2022-11-10T04:19:37.827Z,11.80
2022-11-10T04:22:07.160Z,11.90
2022-11-10T04:24:35.684Z,11.80
2022-11-10T04:27:03.757Z,11.80
2022-11-10T04:29:31.744Z,11.70
2022-11-10T04:31:59.806Z,11.80
2022-11-10T04:34:27.740Z,11.80
2022-11-10T04:36:55.827Z,11.80
2022-11-10T04:39:25.404Z,11.70
2022-11-10T04:41:56.130Z,11.70
2022-11-10T04:44:27.731Z,11.70
2022-11-10T04:46:56.951Z,11.70
2022-11-10T04:49:25.045Z,11.70
2022-11-10T04:51:53.091Z,11.60
2022-11-10T04:54:21.219Z,11.60
2022-11-10T04:56:50.732Z,11.80
2022-11-10T04:59:18.736Z,11.70
2022-11-10T05:01:46.729Z,11.70
2022-11-10T05:04:14.986Z,11.60
2022-11-10T05:06:43.015Z,11.60
2022-11-10T05:09:11.116Z,11.60
2022-11-10T05:11:39.117Z,11.70
2022-11-10T05:14:08.766Z,11.80
2022-11-10T05:16:37.659Z,11.80
2022-11-10T05:19:06.061Z,11.80
2022-11-10T05:21:34.170Z,11.80
2022-11-10T05:24:02.339Z,11.80
2022-11-10T05:26:30.311Z,11.80
2022-11-10T05:28:58.429Z,11.80
2022-11-10T05:31:27.941Z,11.80
2022-11-10T05:33:56.118Z,11.70
2022-11-10T05:36:24.578Z,11.80
2022-11-10T05:38:55.504Z,11.80
2022-11-10T05:41:23.656Z,11.80
2022-11-10T05:43:51.764Z,11.80
2022-11-10T05:46:19.882Z,11.80
2022-11-10T05:48:49.843Z,11.70
2022-11-10T05:51:17.931Z,11.80
2022-11-10T05:53:45.984Z,11.90
2022-11-10T05:56:14.113Z,11.70
2022-11-10T05:58:42.171Z,11.70
2022-11-10T06:01:10.541Z,11.70
2022-11-10T06:03:47.566Z,11.70
2022-11-10T06:06:18.092Z,11.70
2022-11-10T06:08:46.138Z,11.70
2022-11-10T06:11:14.257Z,11.70
2022-11-10T06:13:42.371Z,11.70
2022-11-10T06:16:10.491Z,11.70
2022-11-10T06:18:38.629Z,11.70
2022-11-10T06:21:08.948Z,11.70
2022-11-10T06:23:38.651Z,11.70
2022-11-10T06:26:06.896Z,11.60
2022-11-10T06:28:37.847Z,11.70
2022-11-10T06:31:08.325Z,11.80
2022-11-10T06:33:36.434Z,11.70
2022-11-10T06:36:04.865Z,11.90
2022-11-10T06:38:33.006Z,11.80
2022-11-10T06:41:02.453Z,11.80
2022-11-10T06:43:30.453Z,11.80
2022-11-10T06:46:00.835Z,11.70
2022-11-10T06:48:29.016Z,11.80
2022-11-10T06:50:57.219Z,11.80
2022-11-10T06:53:27.204Z,11.80
2022-11-10T06:55:55.571Z,12.00
2022-11-10T06:58:28.107Z,11.70
2022-11-10T07:00:56.357Z,11.70
2022-11-10T07:03:25.570Z,11.70
2022-11-10T07:05:53.828Z,12.00
2022-11-10T07:08:24.791Z,11.80
2022-11-10T07:10:55.969Z,11.90
2022-11-10T07:13:25.616Z,11.90
2022-11-10T07:15:53.804Z,11.90
2022-11-10T07:18:23.398Z,11.90
2022-11-10T07:20:51.499Z,12.00
2022-11-10T07:23:19.803Z,11.90
2022-11-10T07:25:48.103Z,12.00
2022-11-10T07:28:16.247Z,12.00
2022-11-10T07:30:46.192Z,12.00
2022-11-10T07:33:16.575Z,12.10
2022-11-10T07:35:57.306Z,12.00
2022-11-10T07:38:25.782Z,12.10
2022-11-10T07:40:54.829Z,12.10
2022-11-10T07:43:24.813Z,12.10
2022-11-10T07:45:55.039Z,12.20
2022-11-10T07:48:23.221Z,12.10
2022-11-10T07:50:52.763Z,12.30
2022-11-10T07:53:22.263Z,12.30
2022-11-10T07:55:50.755Z,12.30
2022-11-10T07:58:19.685Z,12.40
2022-11-10T08:00:49.164Z,12.40
2022-11-10T08:03:21.327Z,12.40
2022-11-10T08:05:49.806Z,12.60
2022-11-10T08:08:20.405Z,12.50
2022-11-10T08:10:48.524Z,12.50
2022-11-10T08:13:16.573Z,12.60
2022-11-10T08:15:44.745Z,12.60
2022-11-10T08:18:34.932Z,12.50
2022-11-10T08:21:06.350Z,12.60
2022-11-10T08:23:37.464Z,12.70
2022-11-10T08:26:06.036Z,12.70
2022-11-10T08:28:36.509Z,12.80
2022-11-10T08:31:06.178Z,12.70
2022-11-10T08:33:37.251Z,12.60
2022-11-10T08:36:06.848Z,12.80
2022-11-10T08:38:35.412Z,12.70
2022-11-10T08:41:06.032Z,12.80
2022-11-10T08:43:40.117Z,12.80
2022-11-10T08:46:08.403Z,12.90
2022-11-10T08:48:37.887Z,12.90
2022-11-10T08:51:19.717Z,13.00
2022-11-10T08:53:47.904Z,13.00
2022-11-10T08:56:16.052Z,13.00
2022-11-10T08:58:52.836Z,13.00
2022-11-10T09:01:24.130Z,13.10
2022-11-10T09:03:53.685Z,13.10
2022-11-10T09:06:21.672Z,13.20
2022-11-10T09:08:50.722Z,13.30
2022-11-10T09:11:18.750Z,13.30
2022-11-10T09:13:46.797Z,13.40
2022-11-10T09:16:14.764Z,13.40
2022-11-10T09:18:42.680Z,13.50
2022-11-10T09:21:13.064Z,13.60
2022-11-10T09:23:40.943Z,13.60
2022-11-10T09:26:08.907Z,13.70
2022-11-10T09:28:36.815Z,13.70
2022-11-10T09:31:04.889Z,13.80
2022-11-10T09:33:32.896Z,13.80
2022-11-10T09:36:02.086Z,13.90
2022-11-10T09:38:31.540Z,14.00
2022-11-10T09:41:02.804Z,14.00
2022-11-10T09:43:36.397Z,14.10
2022-11-10T09:46:10.775Z,14.20
2022-11-10T09:48:44.229Z,14.30
2022-11-10T09:51:18.330Z,14.30
2022-11-10T09:53:52.142Z,14.40
2022-11-10T09:56:23.820Z,14.50
2022-11-10T09:58:52.197Z,14.60
2022-11-10T10:01:34.924Z,14.70
2022-11-10T10:04:17.740Z,14.60
2022-11-10T10:07:10.240Z,14.60
2022-11-10T10:09:49.871Z,14.70
2022-11-10T10:12:31.944Z,14.70
2022-11-10T10:15:13.113Z,14.80
2022-11-10T10:17:51.068Z,14.80
2022-11-10T10:20:25.095Z,14.80
2022-11-10T10:23:05.191Z,14.90
2022-11-10T10:25:35.081Z,14.90
2022-11-10T10:28:08.929Z,15.00
2022-11-10T10:30:36.894Z,15.00
2022-11-10T10:33:15.453Z,15.00
2022-11-10T10:35:44.346Z,14.90
2022-11-10T10:38:26.335Z,15.00
2022-11-10T10:41:01.062Z,15.00
2022-11-10T10:43:29.071Z,15.10
2022-11-10T10:46:09.595Z,15.00
2022-11-10T10:48:37.577Z,15.20
2022-11-10T10:51:05.606Z,15.10
2022-11-10T10:53:33.686Z,15.10
2022-11-10T10:56:08.848Z,15.10
2022-11-10T10:58:51.424Z,15.10
2022-11-10T11:01:27.533Z,15.20
2022-11-10T11:03:55.818Z,15.20
2022-11-10T11:06:27.132Z,15.20
2022-11-10T11:08:59.680Z,15.20
2022-11-10T11:11:31.977Z,15.20
2022-11-10T11:14:20.295Z,15.20
2022-11-10T11:16:51.260Z,15.20
2022-11-10T11:19:21.603Z,15.20
2022-11-10T11:22:03.192Z,15.20
2022-11-10T11:24:41.287Z,15.30
2022-11-10T11:27:19.389Z,15.30
2022-11-10T11:30:05.581Z,15.30
2022-11-10T11:33:05.937Z,15.50
2022-11-10T11:35:44.039Z,15.40
2022-11-10T11:38:15.715Z,15.40
2022-11-10T11:40:49.514Z,15.40
2022-11-10T11:43:44.783Z,15.40
2022-11-10T11:46:21.547Z,15.50
2022-11-10T11:48:53.207Z,15.50
2022-11-10T11:51:28.479Z,15.50
2022-11-10T11:54:21.650Z,15.50
2022-11-10T11:56:51.257Z,15.70
2022-11-10T11:59:36.848Z,15.60
2022-11-10T12:02:33.995Z,15.60
2022-11-10T12:05:18.895Z,15.60
2022-11-10T12:07:56.607Z,15.60
2022-11-10T12:10:38.175Z,15.60
2022-11-10T12:13:26.223Z,15.70
2022-11-10T12:16:01.568Z,15.50
2022-11-10T12:18:36.325Z,15.50
2022-11-10T12:21:23.488Z,15.50
2022-11-10T12:24:10.116Z,15.50
2022-11-10T12:26:49.220Z,15.50
2022-11-10T12:29:28.098Z,15.50
2022-11-10T12:32:06.277Z,15.60
2022-11-10T12:34:40.627Z,15.60
2022-11-10T12:37:17.244Z,15.60
2022-11-10T12:39:51.244Z,15.60
2022-11-10T12:42:22.525Z,15.70
2022-11-10T12:44:59.810Z,15.80
2022-11-10T12:47:33.493Z,15.80
2022-11-10T12:50:25.640Z,15.90
2022-11-10T12:52:56.196Z,15.90
2022-11-10T12:55:34.890Z,15.90
2022-11-10T12:58:04.946Z,16.00
2022-11-10T13:00:37.609Z,15.90
2022-11-10T13:03:13.871Z,15.90
2022-11-10T13:05:45.170Z,15.90
2022-11-10T13:08:33.408Z,15.90
2022-11-10T13:11:08.346Z,15.80
2022-11-10T13:13:46.483Z,15.80
2022-11-10T13:16:49.975Z,15.80
2022-11-10T13:19:53.608Z,15.80
2022-11-10T13:22:37.199Z,15.80
2022-11-10T13:25:43.140Z,15.80
2022-11-10T13:28:11.430Z,15.80
2022-11-10T13:30:42.315Z,15.90
2022-11-10T13:33:36.157Z,15.80
2022-11-10T13:36:06.056Z,15.90
2022-11-10T13:38:41.645Z,15.80
2022-11-10T13:41:25.796Z,15.80
2022-11-10T13:43:55.841Z,15.90
2022-11-10T13:46:34.933Z,16.00
2022-11-10T13:49:31.568Z,15.90
2022-11-10T13:52:10.840Z,16.00
2022-11-10T13:55:05.034Z,16.10
2022-11-10T13:57:37.544Z,16.20
2022-11-10T14:00:25.596Z,16.20
2022-11-10T14:02:57.537Z,16.10
2022-11-10T14:06:03.368Z,16.00
2022-11-10T14:08:39.491Z,16.00
2022-11-10T14:11:19.702Z,15.80
2022-11-10T14:13:51.955Z,15.90
2022-11-10T14:16:23.187Z,15.90
2022-11-10T14:18:57.237Z,15.90
2022-11-10T14:21:31.481Z,15.90
2022-11-10T14:24:08.308Z,15.90
2022-11-10T14:26:38.875Z,16.10
2022-11-10T14:29:28.355Z,15.90
2022-11-10T14:31:57.302Z,15.90
2022-11-10T14:34:25.410Z,15.80
2022-11-10T14:36:55.358Z,15.90
2022-11-10T14:39:29.600Z,15.90
2022-11-10T14:42:00.850Z,15.70
2022-11-10T14:44:31.677Z,15.60
2022-11-10T14:47:14.824Z,15.70
2022-11-10T14:49:43.893Z,15.60
2022-11-10T14:52:15.601Z,15.60
2022-11-10T14:54:47.740Z,15.60
2022-11-10T14:57:19.714Z,15.50
2022-11-10T14:59:48.283Z,15.50
2022-11-10T15:02:19.559Z,15.40
2022-11-10T15:04:51.018Z,15.40
2022-11-10T15:07:19.920Z,15.40
2022-11-10T15:12:43.991Z,15.40
2022-11-10T15:15:22.837Z,15.40
2022-11-10T15:17:52.386Z,15.20
2022-11-10T15:20:38.224Z,15.30
2022-11-10T15:23:16.361Z,15.30
2022-11-10T15:25:46.951Z,15.30
2022-11-10T15:28:28.386Z,15.30
2022-11-10T15:30:58.522Z,15.10
2022-11-10T15:33:33.200Z,15.30
2022-11-10T15:36:17.624Z,15.20
2022-11-10T15:38:45.545Z,15.20
2022-11-10T15:41:16.836Z,15.40
2022-11-10T15:43:48.044Z,15.20
2022-11-10T15:46:19.441Z,15.30
2022-11-10T15:48:49.586Z,15.30
2022-11-10T15:51:25.694Z,15.00
2022-11-10T15:53:55.448Z,15.10
2022-11-10T15:56:25.468Z,15.10
2022-11-10T15:59:00.698Z,15.20
2022-11-10T16:01:31.588Z,15.10
2022-11-10T16:03:59.567Z,14.90
2022-11-10T16:06:29.933Z,15.10
2022-11-10T16:08:58.102Z,15.10
2022-11-10T16:11:26.219Z,15.00
2022-11-10T16:13:58.696Z,15.00
2022-11-10T16:16:26.551Z,15.00
2022-11-10T16:18:55.436Z,15.00
2022-11-10T16:21:25.467Z,15.00
2022-11-10T16:23:54.425Z,14.90
2022-11-10T16:26:24.772Z,14.80
2022-11-10T16:28:52.721Z,14.80
2022-11-10T16:31:23.046Z,14.60
2022-11-10T16:33:51.628Z,14.70
2022-11-10T16:36:28.201Z,14.70
2022-11-10T16:38:57.107Z,14.60
2022-11-10T16:41:28.228Z,14.60
2022-11-10T16:43:56.300Z,14.60
2022-11-10T16:46:29.038Z,14.60
2022-11-10T16:48:59.788Z,14.60
2022-11-10T16:51:30.328Z,14.50
2022-11-10T16:53:59.421Z,14.50
2022-11-10T16:56:27.451Z,14.50
2022-11-10T16:58:55.370Z,14.50
2022-11-10T17:01:28.099Z,14.50
2022-11-10T17:04:02.415Z,14.40
2022-11-10T17:06:31.540Z,14.40
2022-11-10T17:09:08.268Z,14.40
2022-11-10T17:11:36.274Z,14.50
2022-11-10T17:14:04.413Z,14.40
2022-11-10T17:16:36.936Z,14.40
2022-11-10T17:19:08.600Z,14.40
2022-11-10T17:21:37.361Z,14.40
2022-11-10T17:24:06.704Z,14.30
2022-11-10T17:26:35.516Z,14.30
2022-11-10T17:29:03.680Z,14.30
2022-11-10T17:31:33.923Z,14.30
2022-11-10T17:34:04.977Z,14.30
2022-11-10T17:36:34.898Z,14.30
2022-11-10T17:39:06.028Z,14.30
2022-11-10T17:41:35.511Z,14.30
2022-11-10T17:44:03.492Z,14.20
2022-11-10T17:46:32.866Z,14.20
2022-11-10T17:49:03.235Z,14.10
2022-11-10T17:51:34.167Z,14.10
2022-11-10T17:54:04.695Z,14.10
2022-11-10T17:56:33.225Z,14.10
2022-11-10T17:59:01.490Z,14.10
2022-11-10T18:01:29.606Z,14.00
2022-11-10T18:03:59.554Z,14.10
2022-11-10T18:06:27.653Z,14.00
2022-11-10T18:08:55.618Z,13.90
2022-11-10T18:11:23.777Z,14.00
2022-11-10T18:13:51.769Z,14.00
2022-11-10T18:16:20.011Z,14.00
2022-11-10T18:18:48.534Z,14.00
2022-11-10T18:21:18.099Z,13.90
2022-11-10T18:23:46.146Z,14.00
2022-11-10T18:26:14.191Z,13.80
2022-11-10T18:28:43.346Z,13.90
2022-11-10T18:31:13.621Z,14.00
2022-11-10T18:33:42.549Z,13.80
2022-11-10T18:36:11.386Z,13.80
2022-11-10T18:38:40.849Z,13.80
2022-11-10T18:41:26.408Z,13.80
2022-11-10T18:43:54.457Z,13.70
2022-11-10T18:46:22.448Z,13.70
2022-11-10T18:48:50.829Z,13.70
2022-11-10T18:51:21.286Z,13.70
2022-11-10T18:53:50.717Z,13.70
2022-11-10T18:56:18.899Z,13.70
2022-11-10T18:58:56.233Z,13.70
2022-11-10T19:01:27.548Z,13.60
2022-11-10T19:03:55.992Z,13.60
2022-11-10T19:06:24.407Z,13.60
2022-11-10T19:08:53.870Z,13.60
2022-11-10T19:11:28.046Z,13.60
2022-11-10T19:13:56.279Z,13.70
2022-11-10T19:16:24.325Z,13.70
2022-11-10T19:18:52.241Z,13.70
2022-11-10T19:21:22.272Z,13.80
2022-11-10T19:23:50.484Z,13.80
2022-11-10T19:26:23.049Z,13.90
2022-11-10T19:28:53.233Z,13.80
2022-11-10T19:31:22.923Z,13.90
2022-11-10T19:33:52.288Z,13.90
2022-11-10T19:36:22.264Z,13.90
2022-11-10T19:38:54.350Z,13.90
2022-11-10T19:41:25.897Z,13.90
2022-11-10T19:43:54.022Z,13.80
2022-11-10T19:46:23.387Z,14.10
2022-11-10T19:48:55.353Z,14.00
2022-11-10T19:51:24.571Z,13.90
2022-11-10T19:53:58.932Z,13.90
2022-11-10T19:56:31.976Z,13.90
2022-11-10T19:59:01.129Z,13.90
2022-11-10T20:01:29.358Z,13.90
2022-11-10T20:03:58.677Z,13.90
2022-11-10T20:06:27.044Z,13.90
2022-11-10T20:08:55.865Z,13.90
2022-11-10T20:11:26.212Z,13.90
2022-11-10T20:13:59.035Z,13.90
2022-11-10T20:16:27.313Z,13.80
2022-11-10T20:18:55.292Z,13.70
2022-11-10T20:21:23.958Z,13.80
2022-11-10T20:23:55.688Z,13.70
2022-11-10T20:26:25.209Z,13.90
2022-11-10T20:28:53.227Z,13.70
2022-11-10T20:31:24.682Z,13.80
2022-11-10T20:33:54.311Z,13.80
2022-11-10T20:36:25.890Z,13.80
2022-11-10T20:38:55.365Z,13.80
2022-11-10T20:41:25.807Z,13.60
2022-11-10T20:43:53.767Z,13.70
2022-11-10T20:46:53.463Z,13.70
2022-11-10T20:49:14.385Z,13.70
2022-11-10T20:51:43.504Z,13.70
2022-11-10T20:54:11.415Z,13.70
2022-11-10T20:56:39.408Z,13.70
2022-11-10T20:59:07.760Z,13.60
2022-11-10T21:01:37.993Z,13.70
2022-11-10T21:04:06.828Z,13.60
2022-11-10T21:06:35.621Z,13.50
2022-11-10T21:09:03.611Z,13.50
2022-11-10T21:11:55.067Z,13.40
2022-11-10T21:14:22.930Z,13.40
2022-11-10T21:16:52.199Z,13.30
2022-11-10T21:19:20.112Z,13.40
2022-11-10T21:21:48.159Z,13.20
2022-11-10T21:24:16.105Z,13.30
2022-11-10T21:26:44.127Z,13.30
2022-11-10T21:29:12.580Z,13.30
2022-11-10T21:31:40.522Z,13.30
2022-11-10T21:34:10.287Z,13.50
2022-11-10T21:36:38.676Z,13.30
2022-11-10T21:39:06.719Z,13.30
2022-11-10T21:41:37.512Z,13.40
2022-11-10T21:44:05.917Z,13.40
2022-11-10T21:46:33.864Z,13.40
2022-11-10T21:49:07.123Z,13.40
2022-11-10T21:51:39.661Z,13.40
2022-11-10T21:54:07.682Z,13.40
2022-11-10T21:56:35.657Z,13.50
2022-11-10T21:59:03.652Z,13.60
2022-11-10T22:01:31.718Z,13.40
2022-11-10T22:03:59.767Z,13.40
2022-11-10T22:06:50.907Z,13.50
2022-11-10T22:09:40.277Z,13.40
2022-11-10T22:12:29.847Z,13.50
2022-11-10T22:15:15.237Z,13.50
2022-11-10T22:18:08.234Z,13.50
2022-11-10T22:20:36.561Z,13.50
2022-11-10T22:23:04.530Z,13.50
2022-11-10T22:25:34.308Z,13.30
2022-11-10T22:28:05.178Z,13.40
2022-11-10T22:30:35.885Z,13.30
2022-11-10T22:33:24.191Z,13.60
2022-11-10T22:35:57.903Z,13.50
2022-11-10T22:38:28.576Z,13.50
2022-11-10T22:41:17.767Z,13.40
2022-11-10T22:44:03.154Z,13.40
2022-11-10T22:46:33.295Z,13.30
2022-11-10T22:49:01.344Z,13.40
2022-11-10T22:51:34.531Z,13.40
2022-11-10T22:54:03.023Z,13.30
2022-11-10T22:56:33.598Z,13.30
2022-11-10T22:59:01.644Z,13.20
2022-11-10T23:01:29.958Z,13.30
2022-11-10T23:03:58.879Z,13.30
2022-11-10T23:06:27.275Z,13.30
2022-11-10T23:08:55.832Z,13.30
2022-11-10T23:11:25.492Z,13.30
2022-11-10T23:13:54.913Z,13.30
2022-11-10T23:16:24.106Z,13.10
2022-11-10T23:18:56.188Z,13.00
2022-11-10T23:21:27.153Z,12.90
2022-11-10T23:23:56.063Z,13.00
2022-11-10T23:26:25.497Z,13.00
2022-11-10T23:28:55.206Z,13.00
2022-11-10T23:31:24.659Z,13.00
2022-11-10T23:33:54.879Z,12.90
2022-11-10T23:36:24.897Z,12.90
2022-11-10T23:38:53.233Z,12.90
2022-11-10T23:41:23.649Z,12.90
2022-11-10T23:43:51.892Z,12.80
2022-11-10T23:46:21.265Z,12.80
2022-11-10T23:48:49.406Z,12.60
2022-11-10T23:51:20.907Z,12.70
2022-11-10T23:53:48.916Z,12.70
2022-11-10T23:56:19.419Z,12.60
2022-11-10T23:58:47.304Z,12.70
